CEB0920 RPVM-RPMD
Flight info
| Callsign | CEB0920 |
|---|---|
| Flight time | N/A |
| Altitude | 29000 |
| Route | BAMPA2A BAMPA W14 BN W9 RIMAR RIMAR2R |
| Aircraft | B738/M-SDE2E3FGHIRWXY/LB1 |
Departure
| Time | 2026-04-28 15:32 |
|---|---|
| Airport | Mactan Cebu International Airport (RPVM) |
Arrival
| Time | N/A |
|---|---|
| Airport | Francisco Bangoy International Airport (RPMD) |
| Time | Latitude | Longitude | Altitude | Speed | Heading |
|---|---|---|---|---|---|
| 2026-04-28 15:10 | 10.31505 | 123.97930 | 42 ft | 0 kts | 315° |
| 2026-04-28 15:23 | 10.31497 | 123.97938 | 42 ft | 2 kts | 314° |
| 2026-04-28 15:24 | 10.31486 | 123.97949 | 42 ft | 2 kts | 315° |
| 2026-04-28 15:24 | 10.31475 | 123.97961 | 42 ft | 2 kts | 315° |
| 2026-04-28 15:24 | 10.31464 | 123.97972 | 41 ft | 2 kts | 315° |
| 2026-04-28 15:24 | 10.31455 | 123.97981 | 41 ft | 0 kts | 315° |
| 2026-04-28 15:25 | 10.31450 | 123.97993 | 41 ft | 2 kts | 258° |
| 2026-04-28 15:25 | 10.31454 | 123.98001 | 41 ft | 1 kts | 221° |
| 2026-04-28 15:25 | 10.31457 | 123.98003 | 41 ft | 0 kts | 227° |
| 2026-04-28 15:26 | 10.31456 | 123.98003 | 41 ft | 1 kts | 227° |
| 2026-04-28 15:27 | 10.31436 | 123.97980 | 41 ft | 7 kts | 228° |
| 2026-04-28 15:27 | 10.31385 | 123.97922 | 40 ft | 12 kts | 226° |
| 2026-04-28 15:27 | 10.31302 | 123.97930 | 40 ft | 15 kts | 134° |
| 2026-04-28 15:27 | 10.31217 | 123.97987 | 37 ft | 12 kts | 191° |
| 2026-04-28 15:28 | 10.31147 | 123.97929 | 37 ft | 12 kts | 225° |
| 2026-04-28 15:28 | 10.31071 | 123.97853 | 37 ft | 16 kts | 225° |
| 2026-04-28 15:28 | 10.30974 | 123.97756 | 35 ft | 21 kts | 224° |
| 2026-04-28 15:28 | 10.30850 | 123.97631 | 32 ft | 26 kts | 225° |
| 2026-04-28 15:29 | 10.30702 | 123.97482 | 26 ft | 29 kts | 224° |
| 2026-04-28 15:29 | 10.30549 | 123.97328 | 26 ft | 28 kts | 224° |
| 2026-04-28 15:29 | 10.30400 | 123.97179 | 24 ft | 28 kts | 225° |
| 2026-04-28 15:29 | 10.30252 | 123.97029 | 22 ft | 27 kts | 224° |
| 2026-04-28 15:30 | 10.30117 | 123.96893 | 23 ft | 25 kts | 225° |
| 2026-04-28 15:30 | 10.29991 | 123.96767 | 24 ft | 21 kts | 225° |
| 2026-04-28 15:30 | 10.29897 | 123.96697 | 25 ft | 11 kts | 180° |
| 2026-04-28 15:30 | 10.29833 | 123.96742 | 24 ft | 10 kts | 131° |
| 2026-04-28 15:31 | 10.29782 | 123.96802 | 23 ft | 10 kts | 131° |
| 2026-04-28 15:31 | 10.29734 | 123.96861 | 22 ft | 8 kts | 120° |
| 2026-04-28 15:31 | 10.29734 | 123.96911 | 22 ft | 5 kts | 60° |
| 2026-04-28 15:31 | 10.29773 | 123.96957 | 22 ft | 13 kts | 45° |
| 2026-04-28 15:32 | 10.30015 | 123.97200 | 23 ft | 95 kts | 44° |
| 2026-04-28 15:32 | 10.30747 | 123.97933 | 50 ft | 177 kts | 44° |
| 2026-04-28 15:32 | 10.31737 | 123.98934 | 807 ft | 199 kts | 50° |
| 2026-04-28 15:32 | 10.32287 | 124.00353 | 1571 ft | 222 kts | 90° |
| 2026-04-28 15:33 | 10.31725 | 124.01911 | 2213 ft | 241 kts | 130° |
| 2026-04-28 15:33 | 10.30158 | 124.02786 | 3165 ft | 253 kts | 172° |
| 2026-04-28 15:33 | 10.28328 | 124.02875 | 4289 ft | 259 kts | 174° |
| 2026-04-28 15:33 | 10.26512 | 124.03564 | 5294 ft | 270 kts | 141° |
| 2026-04-28 15:34 | 10.25274 | 124.05065 | 6503 ft | 271 kts | 124° |
| 2026-04-28 15:34 | 10.24098 | 124.06699 | 7540 ft | 279 kts | 129° |
| 2026-04-28 15:34 | 10.22766 | 124.08273 | 8659 ft | 282 kts | 131° |
| 2026-04-28 15:34 | 10.21380 | 124.09850 | 9715 ft | 287 kts | 132° |
| 2026-04-28 15:35 | 10.19958 | 124.11449 | 10646 ft | 296 kts | 132° |
| 2026-04-28 15:35 | 10.16768 | 124.15003 | 11602 ft | 343 kts | 132° |
| 2026-04-28 15:35 | 10.14987 | 124.16980 | 12002 ft | 366 kts | 132° |
| 2026-04-28 15:36 | 10.13094 | 124.19080 | 12428 ft | 385 kts | 132° |
| 2026-04-28 15:36 | 10.11165 | 124.21220 | 13249 ft | 391 kts | 132° |
| 2026-04-28 15:36 | 10.09215 | 124.23382 | 13940 ft | 399 kts | 132° |
| 2026-04-28 15:36 | 10.07212 | 124.25603 | 14785 ft | 402 kts | 132° |
| 2026-04-28 15:37 | 10.05205 | 124.27827 | 15525 ft | 407 kts | 132° |
| 2026-04-28 15:37 | 10.03179 | 124.30073 | 16262 ft | 412 kts | 132° |
| 2026-04-28 15:37 | 10.01132 | 124.32339 | 16965 ft | 416 kts | 132° |
| 2026-04-28 15:37 | 9.99075 | 124.34614 | 17639 ft | 420 kts | 132° |
| 2026-04-28 15:38 | 9.96959 | 124.36955 | 18306 ft | 424 kts | 132° |
| 2026-04-28 15:38 | 9.94842 | 124.39296 | 18937 ft | 428 kts | 132° |
| 2026-04-28 15:38 | 9.92711 | 124.41654 | 19554 ft | 432 kts | 132° |
| 2026-04-28 15:38 | 9.90567 | 124.44024 | 20141 ft | 436 kts | 132° |
| 2026-04-28 15:39 | 9.88425 | 124.46392 | 20709 ft | 439 kts | 132° |
| 2026-04-28 15:39 | 9.86254 | 124.48792 | 21250 ft | 443 kts | 132° |
| 2026-04-28 15:39 | 9.84065 | 124.51211 | 21778 ft | 446 kts | 132° |
| 2026-04-28 15:39 | 9.81842 | 124.53667 | 22285 ft | 450 kts | 132° |
| 2026-04-28 15:40 | 9.79625 | 124.56117 | 22774 ft | 453 kts | 132° |
| 2026-04-28 15:40 | 9.77382 | 124.58594 | 23244 ft | 456 kts | 132° |
| 2026-04-28 15:40 | 9.75117 | 124.61095 | 23705 ft | 459 kts | 132° |
| 2026-04-28 15:40 | 9.72871 | 124.63577 | 24141 ft | 462 kts | 132° |
| 2026-04-28 15:41 | 9.70563 | 124.66130 | 24577 ft | 465 kts | 133° |
| 2026-04-28 15:41 | 9.68315 | 124.68616 | 24980 ft | 468 kts | 133° |
| 2026-04-28 15:41 | 9.65973 | 124.71205 | 25389 ft | 471 kts | 133° |
| 2026-04-28 15:41 | 9.63624 | 124.73801 | 25772 ft | 474 kts | 133° |
| 2026-04-28 15:42 | 9.61252 | 124.76423 | 26164 ft | 476 kts | 133° |
| 2026-04-28 15:42 | 9.58912 | 124.79008 | 26583 ft | 477 kts | 133° |
| 2026-04-28 15:42 | 9.56569 | 124.81596 | 27013 ft | 477 kts | 133° |
| 2026-04-28 15:42 | 9.54249 | 124.84158 | 27448 ft | 477 kts | 133° |
| 2026-04-28 15:43 | 9.51883 | 124.86768 | 27897 ft | 477 kts | 133° |
| 2026-04-28 15:43 | 9.49559 | 124.89334 | 28344 ft | 476 kts | 133° |
| 2026-04-28 15:43 | 9.47223 | 124.91912 | 28793 ft | 476 kts | 133° |
| 2026-04-28 15:43 | 9.44888 | 124.94486 | 29007 ft | 473 kts | 133° |
| 2026-04-28 15:44 | 9.40249 | 124.99533 | 29001 ft | 468 kts | 133° |
| 2026-04-28 15:44 | 9.35636 | 125.04540 | 29001 ft | 467 kts | 133° |
| 2026-04-28 15:45 | 9.31028 | 125.09544 | 29000 ft | 467 kts | 133° |
| 2026-04-28 15:45 | 9.26382 | 125.14587 | 29000 ft | 467 kts | 133° |
| 2026-04-28 15:46 | 9.21643 | 125.19729 | 29000 ft | 467 kts | 133° |
| 2026-04-28 15:46 | 9.16993 | 125.24773 | 29000 ft | 467 kts | 133° |
| 2026-04-28 15:47 | 9.12276 | 125.29888 | 29000 ft | 467 kts | 133° |
| 2026-04-28 15:47 | 9.07594 | 125.34963 | 29000 ft | 467 kts | 133° |
| 2026-04-28 15:48 | 9.02934 | 125.40012 | 29000 ft | 467 kts | 133° |
| 2026-04-28 15:48 | 8.98087 | 125.44864 | 28998 ft | 467 kts | 141° |
| 2026-04-28 15:49 | 8.92084 | 125.48170 | 29001 ft | 467 kts | 163° |
| 2026-04-28 15:49 | 8.85437 | 125.49331 | 29002 ft | 467 kts | 174° |
| 2026-04-28 15:50 | 8.78667 | 125.50021 | 28999 ft | 467 kts | 174° |
| 2026-04-28 15:50 | 8.71910 | 125.50727 | 28998 ft | 467 kts | 174° |
| 2026-04-28 15:51 | 8.65151 | 125.51421 | 28999 ft | 467 kts | 174° |
| 2026-04-28 15:51 | 8.58355 | 125.52116 | 28999 ft | 467 kts | 174° |
| 2026-04-28 15:52 | 8.51583 | 125.52802 | 28999 ft | 467 kts | 174° |
| 2026-04-28 15:52 | 8.44778 | 125.53415 | 28999 ft | 467 kts | 175° |
| 2026-04-28 15:53 | 8.38077 | 125.54012 | 29000 ft | 467 kts | 175° |
| 2026-04-28 15:53 | 8.31289 | 125.54619 | 29000 ft | 467 kts | 175° |
| 2026-04-28 15:54 | 8.24527 | 125.55225 | 28999 ft | 467 kts | 175° |
| 2026-04-28 15:54 | 8.17688 | 125.55837 | 28969 ft | 462 kts | 175° |
| 2026-04-28 15:55 | 8.14403 | 125.56131 | 28191 ft | 458 kts | 175° |
| 2026-04-28 15:55 | 8.11033 | 125.56433 | 26989 ft | 464 kts | 175° |
| 2026-04-28 15:55 | 8.07669 | 125.56735 | 25819 ft | 466 kts | 175° |
| 2026-04-28 15:55 | 8.04330 | 125.57029 | 24618 ft | 466 kts | 175° |
| 2026-04-28 15:56 | 8.00956 | 125.57175 | 23489 ft | 459 kts | 179° |
| 2026-04-28 15:56 | 7.97699 | 125.57101 | 22780 ft | 443 kts | 184° |
| 2026-04-28 15:56 | 7.94469 | 125.56675 | 21976 ft | 448 kts | 191° |
| 2026-04-28 15:56 | 7.91343 | 125.55896 | 21130 ft | 440 kts | 195° |
| 2026-04-28 15:57 | 7.88299 | 125.55040 | 20310 ft | 429 kts | 195° |
| 2026-04-28 15:57 | 7.85291 | 125.54197 | 19496 ft | 434 kts | 195° |
| 2026-04-28 15:57 | 7.82269 | 125.53342 | 18650 ft | 422 kts | 195° |
| 2026-04-28 15:57 | 7.79322 | 125.52502 | 17838 ft | 417 kts | 195° |
| 2026-04-28 15:58 | 7.76330 | 125.51643 | 16992 ft | 417 kts | 196° |
| 2026-04-28 15:58 | 7.73422 | 125.50800 | 16165 ft | 404 kts | 196° |
| 2026-04-28 15:58 | 7.70575 | 125.49972 | 15390 ft | 407 kts | 196° |
| 2026-04-28 15:58 | 7.67748 | 125.49146 | 14596 ft | 399 kts | 196° |
| 2026-04-28 15:59 | 7.64980 | 125.48337 | 13832 ft | 393 kts | 196° |
| 2026-04-28 15:59 | 7.62216 | 125.47528 | 13051 ft | 393 kts | 196° |
| 2026-04-28 15:59 | 7.59508 | 125.46736 | 12275 ft | 382 kts | 196° |
| 2026-04-28 15:59 | 7.56866 | 125.45963 | 11648 ft | 377 kts | 196° |
| 2026-04-28 16:00 | 7.54260 | 125.45200 | 11211 ft | 358 kts | 196° |
| 2026-04-28 16:00 | 7.51813 | 125.44484 | 10978 ft | 336 kts | 196° |
| 2026-04-28 16:00 | 7.49530 | 125.43816 | 10826 ft | 331 kts | 196° |
| 2026-04-28 16:00 | 7.47268 | 125.43154 | 10642 ft | 315 kts | 196° |
| 2026-04-28 16:01 | 7.45137 | 125.42531 | 10476 ft | 297 kts | 196° |
| 2026-04-28 16:01 | 7.43092 | 125.41932 | 10321 ft | 291 kts | 196° |
| 2026-04-28 16:01 | 7.41092 | 125.41347 | 10104 ft | 282 kts | 196° |
| 2026-04-28 16:01 | 7.39156 | 125.40781 | 9765 ft | 276 kts | 196° |
| 2026-04-28 16:02 | 7.37237 | 125.40219 | 9393 ft | 271 kts | 196° |
| 2026-04-28 16:02 | 7.35385 | 125.39679 | 9040 ft | 266 kts | 194° |
| 2026-04-28 16:02 | 7.33428 | 125.39470 | 8698 ft | 272 kts | 174° |
| 2026-04-28 16:02 | 7.31511 | 125.39853 | 8329 ft | 267 kts | 166° |
| 2026-04-28 16:03 | 7.29596 | 125.40292 | 7966 ft | 263 kts | 168° |
| 2026-04-28 16:03 | 7.27710 | 125.40698 | 7618 ft | 266 kts | 168° |
| 2026-04-28 16:03 | 7.25819 | 125.41103 | 7258 ft | 264 kts | 168° |
| 2026-04-28 16:03 | 7.23907 | 125.41511 | 6899 ft | 258 kts | 168° |
| 2026-04-28 16:04 | 7.22032 | 125.41910 | 6554 ft | 262 kts | 168° |
| 2026-04-28 16:04 | 7.20157 | 125.42306 | 6197 ft | 260 kts | 168° |
| 2026-04-28 16:04 | 7.18256 | 125.42708 | 5839 ft | 257 kts | 168° |
| 2026-04-28 16:04 | 7.16409 | 125.43098 | 5490 ft | 254 kts | 168° |
| 2026-04-28 16:05 | 7.14593 | 125.43481 | 5147 ft | 251 kts | 168° |
| 2026-04-28 16:05 | 7.12741 | 125.43871 | 4802 ft | 257 kts | 168° |
| 2026-04-28 16:05 | 7.10906 | 125.44258 | 4451 ft | 254 kts | 168° |
| 2026-04-28 16:05 | 7.09134 | 125.44632 | 4167 ft | 247 kts | 168° |
| 2026-04-28 16:06 | 7.07393 | 125.45022 | 4060 ft | 233 kts | 162° |
| 2026-04-28 16:06 | 7.05910 | 125.45850 | 3823 ft | 226 kts | 139° |
| 2026-04-28 16:06 | 7.04688 | 125.46951 | 3585 ft | 221 kts | 138° |
| 2026-04-28 16:06 | 7.03462 | 125.48024 | 3316 ft | 218 kts | 139° |
| 2026-04-28 16:07 | 7.02271 | 125.49065 | 3067 ft | 215 kts | 136° |
| 2026-04-28 16:07 | 7.01467 | 125.50375 | 2844 ft | 209 kts | 101° |
| 2026-04-28 16:07 | 7.02544 | 125.52930 | 2476 ft | 185 kts | 47° |
| 2026-04-28 16:08 | 7.03385 | 125.53909 | 2293 ft | 168 kts | 49° |
| 2026-04-28 16:08 | 7.04158 | 125.54807 | 2166 ft | 146 kts | 49° |
| 2026-04-28 16:08 | 7.04832 | 125.55592 | 2010 ft | 139 kts | 49° |
| 2026-04-28 16:09 | 7.05063 | 125.55862 | 1980 ft | 140 kts | 49° |